sensor_id;sensor_type;location;lat;lon;timestamp;pressure;altitude;pressure_sealevel;temperature;humidity
72409;BME280;60402;48.082;11.628;2023-04-28T00:02:09;95314.72;;;6.72;100.00
72409;BME280;60402;48.082;11.628;2023-04-28T00:04:55;95307.16;;;6.69;100.00
72409;BME280;60402;48.082;11.628;2023-04-28T00:07:40;95283.97;;;6.64;100.00
72409;BME280;60402;48.082;11.628;2023-04-28T00:10:26;95279.19;;;6.61;100.00
72409;BME280;60402;48.082;11.628;2023-04-28T00:13:12;95271.59;;;6.58;100.00
72409;BME280;60402;48.082;11.628;2023-04-28T00:15:57;95300.69;;;6.72;100.00
72409;BME280;60402;48.082;11.628;2023-04-28T00:18:44;95312.13;;;6.84;100.00
72409;BME280;60402;48.082;11.628;2023-04-28T00:21:30;95271.56;;;6.62;100.00
72409;BME280;60402;48.082;11.628;2023-04-28T00:24:16;95286.28;;;6.70;100.00
72409;BME280;60402;48.082;11.628;2023-04-28T00:27:02;95271.16;;;6.63;100.00
72409;BME280;60402;48.082;11.628;2023-04-28T00:29:47;95307.13;;;6.96;100.00
72409;BME280;60402;48.082;11.628;2023-04-28T00:32:33;95270.28;;;6.66;100.00
72409;BME280;60402;48.082;11.628;2023-04-28T00:35:19;95292.44;;;6.88;100.00
72409;BME280;60402;48.082;11.628;2023-04-28T00:38:04;95290.72;;;6.94;100.00
72409;BME280;60402;48.082;11.628;2023-04-28T00:40:50;95270.84;;;6.81;100.00
72409;BME280;60402;48.082;11.628;2023-04-28T00:43:48;95288.69;;;6.95;100.00
72409;BME280;60402;48.082;11.628;2023-04-28T00:46:34;95284.00;;;6.88;100.00
72409;BME280;60402;48.082;11.628;2023-04-28T00:49:20;95270.53;;;6.76;100.00
72409;BME280;60402;48.082;11.628;2023-04-28T00:52:06;95271.72;;;6.78;100.00
72409;BME280;60402;48.082;11.628;2023-04-28T00:54:52;95261.31;;;6.75;100.00
72409;BME280;60402;48.082;11.628;2023-04-28T00:57:37;95254.31;;;6.63;100.00
72409;BME280;60402;48.082;11.628;2023-04-28T01:00:23;95255.41;;;6.70;100.00
72409;BME280;60402;48.082;11.628;2023-04-28T01:03:09;95289.19;;;6.89;100.00
72409;BME280;60402;48.082;11.628;2023-04-28T01:05:55;95285.94;;;6.91;100.00
72409;BME280;60402;48.082;11.628;2023-04-28T01:08:41;95276.06;;;6.83;100.00
72409;BME280;60402;48.082;11.628;2023-04-28T01:11:28;95258.47;;;6.79;100.00
72409;BME280;60402;48.082;11.628;2023-04-28T01:14:13;95239.41;;;6.66;100.00
72409;BME280;60402;48.082;11.628;2023-04-28T01:16:59;95262.97;;;6.96;100.00
72409;BME280;60402;48.082;11.628;2023-04-28T01:19:45;95240.03;;;6.78;100.00
72409;BME280;60402;48.082;11.628;2023-04-28T01:22:31;95245.53;;;6.85;100.00
72409;BME280;60402;48.082;11.628;2023-04-28T01:25:16;95218.03;;;6.73;100.00
72409;BME280;60402;48.082;11.628;2023-04-28T01:28:02;95235.50;;;6.84;100.00
72409;BME280;60402;48.082;11.628;2023-04-28T01:30:48;95259.78;;;6.98;100.00
72409;BME280;60402;48.082;11.628;2023-04-28T01:33:33;95220.53;;;6.67;100.00
72409;BME280;60402;48.082;11.628;2023-04-28T01:36:21;95249.13;;;6.85;100.00
72409;BME280;60402;48.082;11.628;2023-04-28T01:39:08;95248.28;;;6.88;100.00
72409;BME280;60402;48.082;11.628;2023-04-28T01:41:53;95216.97;;;6.63;100.00
72409;BME280;60402;48.082;11.628;2023-04-28T01:44:39;95249.06;;;6.89;100.00
72409;BME280;60402;48.082;11.628;2023-04-28T01:47:25;95209.69;;;6.69;100.00
72409;BME280;60402;48.082;11.628;2023-04-28T01:50:11;95234.97;;;6.93;100.00
72409;BME280;60402;48.082;11.628;2023-04-28T01:52:56;95220.44;;;6.98;100.00
72409;BME280;60402;48.082;11.628;2023-04-28T01:55:42;95243.56;;;7.05;100.00
72409;BME280;60402;48.082;11.628;2023-04-28T01:58:28;95214.38;;;6.99;100.00
72409;BME280;60402;48.082;11.628;2023-04-28T02:01:13;95243.72;;;7.22;100.00
72409;BME280;60402;48.082;11.628;2023-04-28T02:03:59;95231.44;;;7.12;100.00
72409;BME280;60402;48.082;11.628;2023-04-28T02:06:45;95249.09;;;7.12;100.00
72409;BME280;60402;48.082;11.628;2023-04-28T02:09:31;95218.13;;;6.93;100.00
72409;BME280;60402;48.082;11.628;2023-04-28T02:12:16;95252.94;;;7.22;100.00
72409;BME280;60402;48.082;11.628;2023-04-28T02:15:02;95226.16;;;7.14;100.00
72409;BME280;60402;48.082;11.628;2023-04-28T02:17:48;95220.00;;;6.99;100.00
72409;BME280;60402;48.082;11.628;2023-04-28T02:20:34;95211.63;;;6.96;100.00
72409;BME280;60402;48.082;11.628;2023-04-28T02:23:19;95229.66;;;7.22;100.00
72409;BME280;60402;48.082;11.628;2023-04-28T02:26:05;95235.88;;;7.33;100.00
72409;BME280;60402;48.082;11.628;2023-04-28T02:28:51;95268.00;;;7.55;100.00
72409;BME280;60402;48.082;11.628;2023-04-28T02:31:36;95254.66;;;7.59;100.00
72409;BME280;60402;48.082;11.628;2023-04-28T02:34:22;95275.31;;;7.73;100.00
72409;BME280;60402;48.082;11.628;2023-04-28T02:37:08;95242.94;;;7.41;100.00
72409;BME280;60402;48.082;11.628;2023-04-28T02:39:53;95224.53;;;7.16;100.00
72409;BME280;60402;48.082;11.628;2023-04-28T02:42:39;95223.78;;;7.12;100.00
72409;BME280;60402;48.082;11.628;2023-04-28T02:45:25;95233.69;;;7.21;100.00
72409;BME280;60402;48.082;11.628;2023-04-28T02:48:10;95223.75;;;7.16;100.00
72409;BME280;60402;48.082;11.628;2023-04-28T02:50:56;95196.47;;;7.13;100.00
72409;BME280;60402;48.082;11.628;2023-04-28T02:53:42;95222.19;;;7.35;100.00
72409;BME280;60402;48.082;11.628;2023-04-28T02:56:27;95235.88;;;7.33;100.00
72409;BME280;60402;48.082;11.628;2023-04-28T02:59:14;95229.09;;;7.30;100.00
72409;BME280;60402;48.082;11.628;2023-04-28T03:02:00;95223.38;;;7.34;100.00
72409;BME280;60402;48.082;11.628;2023-04-28T03:04:45;95198.06;;;7.14;100.00
72409;BME280;60402;48.082;11.628;2023-04-28T03:07:31;95191.59;;;7.17;100.00
72409;BME280;60402;48.082;11.628;2023-04-28T03:10:17;95215.28;;;7.39;100.00
72409;BME280;60402;48.082;11.628;2023-04-28T03:13:02;95181.66;;;7.12;100.00
72409;BME280;60402;48.082;11.628;2023-04-28T03:15:48;95224.50;;;7.40;100.00
72409;BME280;60402;48.082;11.628;2023-04-28T03:18:34;95201.50;;;7.25;100.00
72409;BME280;60402;48.082;11.628;2023-04-28T03:21:19;95203.81;;;7.30;100.00
72409;BME280;60402;48.082;11.628;2023-04-28T03:24:05;95198.97;;;7.31;100.00
72409;BME280;60402;48.082;11.628;2023-04-28T03:26:51;95145.31;;;7.02;100.00
72409;BME280;60402;48.082;11.628;2023-04-28T03:29:37;95181.66;;;7.32;100.00
72409;BME280;60402;48.082;11.628;2023-04-28T03:32:22;95185.34;;;7.29;100.00
72409;BME280;60402;48.082;11.628;2023-04-28T03:35:08;95190.13;;;7.52;100.00
72409;BME280;60402;48.082;11.628;2023-04-28T03:37:54;95174.03;;;7.53;100.00
72409;BME280;60402;48.082;11.628;2023-04-28T03:40:39;95182.97;;;7.48;100.00
72409;BME280;60402;48.082;11.628;2023-04-28T03:43:25;95177.28;;;7.51;100.00
72409;BME280;60402;48.082;11.628;2023-04-28T03:46:11;95198.19;;;7.90;100.00
72409;BME280;60402;48.082;11.628;2023-04-28T03:48:57;95196.22;;;8.07;100.00
72409;BME280;60402;48.082;11.628;2023-04-28T03:51:42;95172.25;;;7.82;100.00
72409;BME280;60402;48.082;11.628;2023-04-28T03:54:28;95194.84;;;7.95;100.00
72409;BME280;60402;48.082;11.628;2023-04-28T03:57:14;95197.25;;;7.97;100.00
72409;BME280;60402;48.082;11.628;2023-04-28T04:00:00;95225.81;;;7.95;100.00
72409;BME280;60402;48.082;11.628;2023-04-28T04:02:45;95181.84;;;7.65;100.00
72409;BME280;60402;48.082;11.628;2023-04-28T04:05:31;95217.19;;;7.86;100.00
72409;BME280;60402;48.082;11.628;2023-04-28T04:08:17;95198.41;;;7.79;100.00
72409;BME280;60402;48.082;11.628;2023-04-28T04:11:03;95171.66;;;7.71;100.00
72409;BME280;60402;48.082;11.628;2023-04-28T04:13:48;95215.22;;;8.03;100.00
72409;BME280;60402;48.082;11.628;2023-04-28T04:16:35;95186.81;;;7.77;100.00
72409;BME280;60402;48.082;11.628;2023-04-28T04:19:20;95181.31;;;7.70;100.00
72409;BME280;60402;48.082;11.628;2023-04-28T04:22:08;95194.16;;;7.91;100.00
72409;BME280;60402;48.082;11.628;2023-04-28T04:24:54;95160.84;;;7.69;100.00
72409;BME280;60402;48.082;11.628;2023-04-28T04:27:39;95162.66;;;7.60;100.00
72409;BME280;60402;48.082;11.628;2023-04-28T04:30:25;95191.16;;;7.82;100.00
72409;BME280;60402;48.082;11.628;2023-04-28T04:33:11;95158.88;;;7.66;100.00
72409;BME280;60402;48.082;11.628;2023-04-28T04:35:56;95182.53;;;7.89;100.00
72409;BME280;60402;48.082;11.628;2023-04-28T04:38:45;95181.31;;;7.90;100.00
72409;BME280;60402;48.082;11.628;2023-04-28T04:41:31;95150.75;;;7.72;100.00
72409;BME280;60402;48.082;11.628;2023-04-28T04:44:16;95173.81;;;7.83;100.00
72409;BME280;60402;48.082;11.628;2023-04-28T04:47:02;95167.75;;;7.85;100.00
72409;BME280;60402;48.082;11.628;2023-04-28T04:49:48;95168.19;;;7.83;100.00
72409;BME280;60402;48.082;11.628;2023-04-28T04:52:34;95172.50;;;7.88;100.00
72409;BME280;60402;48.082;11.628;2023-04-28T04:55:20;95180.88;;;7.91;100.00
72409;BME280;60402;48.082;11.628;2023-04-28T04:58:06;95187.84;;;8.03;100.00
72409;BME280;60402;48.082;11.628;2023-04-28T05:00:51;95186.59;;;8.24;100.00
72409;BME280;60402;48.082;11.628;2023-04-28T05:03:37;95175.06;;;8.18;100.00
72409;BME280;60402;48.082;11.628;2023-04-28T05:06:23;95182.34;;;8.16;100.00
72409;BME280;60402;48.082;11.628;2023-04-28T05:09:08;95216.53;;;8.34;100.00
72409;BME280;60402;48.082;11.628;2023-04-28T05:11:54;95210.97;;;8.31;100.00
72409;BME280;60402;48.082;11.628;2023-04-28T05:14:40;95206.94;;;8.32;100.00
72409;BME280;60402;48.082;11.628;2023-04-28T05:17:26;95199.44;;;8.25;100.00
72409;BME280;60402;48.082;11.628;2023-04-28T05:20:11;95196.13;;;8.30;100.00
72409;BME280;60402;48.082;11.628;2023-04-28T05:22:57;95232.97;;;8.36;100.00
72409;BME280;60402;48.082;11.628;2023-04-28T05:25:42;95242.81;;;8.48;100.00
72409;BME280;60402;48.082;11.628;2023-04-28T05:28:29;95205.91;;;8.42;100.00
72409;BME280;60402;48.082;11.628;2023-04-28T05:31:15;95222.78;;;8.62;100.00
72409;BME280;60402;48.082;11.628;2023-04-28T05:34:01;95236.16;;;8.58;100.00
72409;BME280;60402;48.082;11.628;2023-04-28T05:36:47;95237.59;;;8.46;100.00
72409;BME280;60402;48.082;11.628;2023-04-28T05:39:32;95232.41;;;8.44;100.00
72409;BME280;60402;48.082;11.628;2023-04-28T05:42:18;95228.28;;;8.49;100.00
72409;BME280;60402;48.082;11.628;2023-04-28T05:45:05;95237.66;;;8.62;100.00
72409;BME280;60402;48.082;11.628;2023-04-28T05:47:51;95232.28;;;8.68;100.00
72409;BME280;60402;48.082;11.628;2023-04-28T05:50:36;95214.75;;;8.60;100.00
72409;BME280;60402;48.082;11.628;2023-04-28T05:53:22;95226.81;;;8.61;100.00
72409;BME280;60402;48.082;11.628;2023-04-28T05:56:08;95196.19;;;8.27;100.00
72409;BME280;60402;48.082;11.628;2023-04-28T05:58:53;95190.47;;;8.30;100.00
72409;BME280;60402;48.082;11.628;2023-04-28T06:01:40;95229.91;;;8.66;100.00
72409;BME280;60402;48.082;11.628;2023-04-28T06:04:26;95225.34;;;8.73;100.00
72409;BME280;60402;48.082;11.628;2023-04-28T06:07:11;95245.97;;;8.86;100.00
72409;BME280;60402;48.082;11.628;2023-04-28T06:09:57;95222.25;;;8.67;100.00
72409;BME280;60402;48.082;11.628;2023-04-28T06:12:43;95252.31;;;8.90;100.00
72409;BME280;60402;48.082;11.628;2023-04-28T06:15:28;95252.91;;;8.81;100.00
72409;BME280;60402;48.082;11.628;2023-04-28T06:18:14;95246.81;;;8.66;100.00
72409;BME280;60402;48.082;11.628;2023-04-28T06:21:00;95230.06;;;8.59;100.00
72409;BME280;60402;48.082;11.628;2023-04-28T06:23:46;95228.94;;;8.57;100.00
72409;BME280;60402;48.082;11.628;2023-04-28T06:26:32;95225.59;;;8.62;100.00
72409;BME280;60402;48.082;11.628;2023-04-28T06:29:17;95222.53;;;8.73;100.00
72409;BME280;60402;48.082;11.628;2023-04-28T06:32:05;95194.88;;;8.67;100.00
72409;BME280;60402;48.082;11.628;2023-04-28T06:34:50;95217.94;;;8.79;100.00
72409;BME280;60402;48.082;11.628;2023-04-28T06:37:36;95230.34;;;8.98;100.00
72409;BME280;60402;48.082;11.628;2023-04-28T06:40:22;95204.66;;;8.95;100.00
72409;BME280;60402;48.082;11.628;2023-04-28T06:43:07;95226.84;;;9.10;100.00
72409;BME280;60402;48.082;11.628;2023-04-28T06:45:53;95220.59;;;9.18;100.00
72409;BME280;60402;48.082;11.628;2023-04-28T06:48:39;95200.84;;;9.18;100.00
72409;BME280;60402;48.082;11.628;2023-04-28T06:51:25;95218.78;;;9.41;100.00
72409;BME280;60402;48.082;11.628;2023-04-28T06:54:11;95208.56;;;9.47;100.00
72409;BME280;60402;48.082;11.628;2023-04-28T06:56:57;95189.66;;;9.60;100.00
72409;BME280;60402;48.082;11.628;2023-04-28T06:59:42;95187.94;;;9.79;100.00
72409;BME280;60402;48.082;11.628;2023-04-28T07:02:28;95177.47;;;10.05;100.00
72409;BME280;60402;48.082;11.628;2023-04-28T07:05:14;95183.09;;;10.47;100.00
72409;BME280;60402;48.082;11.628;2023-04-28T07:08:00;95177.25;;;10.54;100.00
72409;BME280;60402;48.082;11.628;2023-04-28T07:10:46;95197.22;;;10.72;100.00
72409;BME280;60402;48.082;11.628;2023-04-28T07:13:31;95188.53;;;10.80;100.00
72409;BME280;60402;48.082;11.628;2023-04-28T07:16:17;95192.47;;;11.08;100.00
72409;BME280;60402;48.082;11.628;2023-04-28T07:19:03;95187.81;;;11.14;100.00
72409;BME280;60402;48.082;11.628;2023-04-28T07:21:49;95169.53;;;10.93;100.00
72409;BME280;60402;48.082;11.628;2023-04-28T07:24:35;95195.81;;;11.28;100.00
72409;BME280;60402;48.082;11.628;2023-04-28T07:27:20;95189.84;;;11.00;100.00
72409;BME280;60402;48.082;11.628;2023-04-28T07:30:06;95177.50;;;11.20;100.00
72409;BME280;60402;48.082;11.628;2023-04-28T07:32:52;95179.91;;;11.09;100.00
72409;BME280;60402;48.082;11.628;2023-04-28T07:35:38;95133.56;;;10.81;100.00
72409;BME280;60402;48.082;11.628;2023-04-28T07:38:23;95186.56;;;11.15;100.00
72409;BME280;60402;48.082;11.628;2023-04-28T07:41:09;95183.28;;;11.16;100.00
72409;BME280;60402;48.082;11.628;2023-04-28T07:43:55;95182.50;;;11.16;100.00
72409;BME280;60402;48.082;11.628;2023-04-28T07:46:40;95180.56;;;11.13;100.00
72409;BME280;60402;48.082;11.628;2023-04-28T07:49:27;95148.38;;;10.97;100.00
72409;BME280;60402;48.082;11.628;2023-04-28T07:52:13;95180.81;;;11.06;100.00
72409;BME280;60402;48.082;11.628;2023-04-28T07:54:59;95180.56;;;11.13;100.00
72409;BME280;60402;48.082;11.628;2023-04-28T07:57:46;95189.25;;;11.18;100.00
72409;BME280;60402;48.082;11.628;2023-04-28T08:00:33;95156.66;;;10.92;100.00
72409;BME280;60402;48.082;11.628;2023-04-28T08:03:19;95175.38;;;11.11;100.00
72409;BME280;60402;48.082;11.628;2023-04-28T08:06:06;95192.06;;;11.31;100.00
72409;BME280;60402;48.082;11.628;2023-04-28T08:08:53;95194.69;;;11.25;100.00
72409;BME280;60402;48.082;11.628;2023-04-28T08:11:39;95191.50;;;11.23;100.00
72409;BME280;60402;48.082;11.628;2023-04-28T08:14:25;95170.25;;;11.19;100.00
72409;BME280;60402;48.082;11.628;2023-04-28T08:17:10;95162.16;;;11.08;100.00
72409;BME280;60402;48.082;11.628;2023-04-28T08:19:56;95194.00;;;11.34;100.00
72409;BME280;60402;48.082;11.628;2023-04-28T08:22:43;95151.59;;;11.21;100.00
72409;BME280;60402;48.082;11.628;2023-04-28T08:25:28;95189.16;;;11.57;100.00
72409;BME280;60402;48.082;11.628;2023-04-28T08:28:14;95198.94;;;11.43;100.00
72409;BME280;60402;48.082;11.628;2023-04-28T08:31:00;95168.22;;;11.19;100.00
72409;BME280;60402;48.082;11.628;2023-04-28T08:33:45;95145.50;;;11.10;100.00
72409;BME280;60402;48.082;11.628;2023-04-28T08:36:34;95173.75;;;11.23;100.00
72409;BME280;60402;48.082;11.628;2023-04-28T08:39:20;95176.38;;;11.17;100.00
72409;BME280;60402;48.082;11.628;2023-04-28T08:42:07;95147.81;;;10.90;100.00
72409;BME280;60402;48.082;11.628;2023-04-28T08:44:55;95149.38;;;11.04;100.00
72409;BME280;60402;48.082;11.628;2023-04-28T08:47:43;95169.47;;;11.18;100.00
72409;BME280;60402;48.082;11.628;2023-04-28T08:50:34;95141.94;;;10.97;100.00
72409;BME280;60402;48.082;11.628;2023-04-28T08:53:25;95159.78;;;11.07;100.00
72409;BME280;60402;48.082;11.628;2023-04-28T08:56:14;95126.81;;;10.78;100.00
72409;BME280;60402;48.082;11.628;2023-04-28T08:59:03;95164.19;;;11.08;100.00
72409;BME280;60402;48.082;11.628;2023-04-28T09:01:49;95158.53;;;11.08;100.00
72409;BME280;60402;48.082;11.628;2023-04-28T09:04:35;95153.91;;;11.01;100.00
72409;BME280;60402;48.082;11.628;2023-04-28T09:07:21;95158.84;;;11.10;100.00
72409;BME280;60402;48.082;11.628;2023-04-28T09:10:21;95138.19;;;11.00;100.00
72409;BME280;60402;48.082;11.628;2023-04-28T09:13:07;95145.50;;;11.10;100.00
72409;BME280;60402;48.082;11.628;2023-04-28T09:15:58;95163.03;;;11.18;100.00
72409;BME280;60402;48.082;11.628;2023-04-28T09:18:56;95117.38;;;11.07;100.00
72409;BME280;60402;48.082;11.628;2023-04-28T09:22:08;95157.16;;;11.47;100.00
72409;BME280;60402;48.082;11.628;2023-04-28T09:24:54;95137.00;;;11.23;100.00
72409;BME280;60402;48.082;11.628;2023-04-28T09:27:40;95150.09;;;11.30;100.00
72409;BME280;60402;48.082;11.628;2023-04-28T09:30:38;95120.44;;;10.99;100.00
72409;BME280;60402;48.082;11.628;2023-04-28T09:33:25;95155.22;;;11.09;100.00
72409;BME280;60402;48.082;11.628;2023-04-28T09:36:11;95124.03;;;11.00;100.00
72409;BME280;60402;48.082;11.628;2023-04-28T09:38:57;95126.19;;;10.96;100.00
72409;BME280;60402;48.082;11.628;2023-04-28T09:41:44;95148.47;;;11.07;100.00
72409;BME280;60402;48.082;11.628;2023-04-28T09:44:29;95160.09;;;11.21;100.00
72409;BME280;60402;48.082;11.628;2023-04-28T09:47:19;95153.38;;;11.28;100.00
72409;BME280;60402;48.082;11.628;2023-04-28T09:50:11;95156.81;;;11.10;100.00
72409;BME280;60402;48.082;11.628;2023-04-28T09:52:59;95141.56;;;11.08;100.00
72409;BME280;60402;48.082;11.628;2023-04-28T09:55:46;95114.25;;;10.79;100.00
72409;BME280;60402;48.082;11.628;2023-04-28T09:58:33;95111.97;;;10.87;100.00
72409;BME280;60402;48.082;11.628;2023-04-28T10:01:24;95132.63;;;11.09;100.00
72409;BME280;60402;48.082;11.628;2023-04-28T10:04:10;95138.81;;;11.17;100.00
72409;BME280;60402;48.082;11.628;2023-04-28T10:06:57;95140.59;;;11.23;100.00
72409;BME280;60402;48.082;11.628;2023-04-28T10:09:43;95138.03;;;11.16;100.00
72409;BME280;60402;48.082;11.628;2023-04-28T10:12:32;95132.91;;;11.24;100.00
72409;BME280;60402;48.082;11.628;2023-04-28T10:15:18;95135.09;;;11.20;100.00
72409;BME280;60402;48.082;11.628;2023-04-28T10:18:05;95125.38;;;11.08;100.00
72409;BME280;60402;48.082;11.628;2023-04-28T10:20:57;95115.06;;;11.14;100.00
72409;BME280;60402;48.082;11.628;2023-04-28T10:23:59;95124.81;;;11.00;100.00
72409;BME280;60402;48.082;11.628;2023-04-28T10:26:57;95134.88;;;11.14;100.00
72409;BME280;60402;48.082;11.628;2023-04-28T10:29:46;95110.00;;;11.09;100.00
72409;BME280;60402;48.082;11.628;2023-04-28T10:32:32;95127.59;;;11.26;100.00
72409;BME280;60402;48.082;11.628;2023-04-28T10:35:48;95129.72;;;11.35;100.00
72409;BME280;60402;48.082;11.628;2023-04-28T10:38:35;95094.47;;;11.14;100.00
72409;BME280;60402;48.082;11.628;2023-04-28T10:41:30;95123.03;;;11.29;100.00
72409;BME280;60402;48.082;11.628;2023-04-28T10:47:14;95077.88;;;11.16;100.00
72409;BME280;60402;48.082;11.628;2023-04-28T10:50:07;95082.38;;;11.13;100.00
72409;BME280;60402;48.082;11.628;2023-04-28T10:52:53;95100.69;;;11.21;100.00
72409;BME280;60402;48.082;11.628;2023-04-28T10:55:39;95090.47;;;11.24;100.00
72409;BME280;60402;48.082;11.628;2023-04-28T11:01:27;95106.78;;;11.55;100.00
72409;BME280;60402;48.082;11.628;2023-04-28T11:04:14;95090.38;;;11.27;100.00
72409;BME280;60402;48.082;11.628;2023-04-28T11:07:09;95084.09;;;11.11;100.00
72409;BME280;60402;48.082;11.628;2023-04-28T11:09:55;95074.13;;;11.41;100.00
72409;BME280;60402;48.082;11.628;2023-04-28T11:16:05;95098.53;;;11.47;100.00
72409;BME280;60402;48.082;11.628;2023-04-28T11:18:59;95138.34;;;11.75;100.00
72409;BME280;60402;48.082;11.628;2023-04-28T11:21:50;95123.63;;;11.58;100.00
72409;BME280;60402;48.082;11.628;2023-04-28T11:24:36;95096.03;;;11.27;100.00
72409;BME280;60402;48.082;11.628;2023-04-28T11:27:23;95096.97;;;11.46;100.00
72409;BME280;60402;48.082;11.628;2023-04-28T11:30:21;95107.88;;;11.57;100.00
72409;BME280;60402;48.082;11.628;2023-04-28T11:33:07;95107.03;;;11.47;100.00
72409;BME280;60402;48.082;11.628;2023-04-28T11:35:53;95114.06;;;11.43;100.00
72409;BME280;60402;48.082;11.628;2023-04-28T11:38:45;95077.00;;;11.28;100.00
72409;BME280;60402;48.082;11.628;2023-04-28T11:41:31;95104.00;;;11.64;100.00
72409;BME280;60402;48.082;11.628;2023-04-28T11:44:20;95048.28;;;11.30;100.00
72409;BME280;60402;48.082;11.628;2023-04-28T11:47:06;95098.63;;;12.00;100.00
72409;BME280;60402;48.082;11.628;2023-04-28T11:49:51;95087.28;;;12.00;100.00
72409;BME280;60402;48.082;11.628;2023-04-28T11:52:47;95074.66;;;12.23;100.00
72409;BME280;60402;48.082;11.628;2023-04-28T11:55:33;95095.63;;;12.35;100.00
72409;BME280;60402;48.082;11.628;2023-04-28T11:58:19;95117.16;;;12.64;100.00
72409;BME280;60402;48.082;11.628;2023-04-28T12:01:11;95080.94;;;12.68;100.00
72409;BME280;60402;48.082;11.628;2023-04-28T12:03:58;95087.56;;;12.65;100.00
72409;BME280;60402;48.082;11.628;2023-04-28T12:06:44;95095.00;;;12.71;100.00
72409;BME280;60402;48.082;11.628;2023-04-28T12:09:30;95121.38;;;12.99;100.00
72409;BME280;60402;48.082;11.628;2023-04-28T12:12:29;95110.75;;;12.82;100.00
72409;BME280;60402;48.082;11.628;2023-04-28T12:15:18;95127.44;;;12.79;100.00
72409;BME280;60402;48.082;11.628;2023-04-28T12:18:10;95110.16;;;12.87;100.00
72409;BME280;60402;48.082;11.628;2023-04-28T12:20:57;95122.25;;;12.78;100.00
72409;BME280;60402;48.082;11.628;2023-04-28T12:23:42;95104.75;;;12.70;100.00
72409;BME280;60402;48.082;11.628;2023-04-28T12:26:28;95115.50;;;12.85;100.00
72409;BME280;60402;48.082;11.628;2023-04-28T12:29:36;95123.84;;;12.88;100.00
72409;BME280;60402;48.082;11.628;2023-04-28T12:32:40;95123.69;;;12.83;100.00
72409;BME280;60402;48.082;11.628;2023-04-28T12:35:27;95131.91;;;12.90;100.00
72409;BME280;60402;48.082;11.628;2023-04-28T12:38:12;95118.38;;;12.94;100.00
72409;BME280;60402;48.082;11.628;2023-04-28T12:40:59;95106.31;;;12.71;100.00
72409;BME280;60402;48.082;11.628;2023-04-28T12:43:44;95092.75;;;12.57;100.00
72409;BME280;60402;48.082;11.628;2023-04-28T12:46:30;95131.41;;;12.82;100.00
72409;BME280;60402;48.082;11.628;2023-04-28T12:49:16;95119.50;;;12.65;100.00
72409;BME280;60402;48.082;11.628;2023-04-28T12:52:03;95112.28;;;12.64;100.00
72409;BME280;60402;48.082;11.628;2023-04-28T12:54:49;95140.78;;;12.70;100.00
72409;BME280;60402;48.082;11.628;2023-04-28T12:57:35;95131.06;;;12.71;100.00
72409;BME280;60402;48.082;11.628;2023-04-28T13:00:21;95113.06;;;12.65;100.00
72409;BME280;60402;48.082;11.628;2023-04-28T13:03:10;95144.44;;;12.79;100.00
72409;BME280;60402;48.082;11.628;2023-04-28T13:05:56;95121.75;;;12.79;100.00
72409;BME280;60402;48.082;11.628;2023-04-28T13:08:41;95113.84;;;12.65;100.00
72409;BME280;60402;48.082;11.628;2023-04-28T13:11:29;95129.38;;;12.92;100.00
72409;BME280;60402;48.082;11.628;2023-04-28T13:14:15;95113.13;;;12.83;100.00
72409;BME280;60402;48.082;11.628;2023-04-28T13:17:01;95131.13;;;13.08;100.00
72409;BME280;60402;48.082;11.628;2023-04-28T13:19:47;95123.13;;;13.15;100.00
72409;BME280;60402;48.082;11.628;2023-04-28T13:22:33;95121.38;;;13.09;100.00
72409;BME280;60402;48.082;11.628;2023-04-28T13:25:19;95123.66;;;13.41;100.00
72409;BME280;60402;48.082;11.628;2023-04-28T13:28:05;95125.88;;;13.55;100.00
72409;BME280;60402;48.082;11.628;2023-04-28T13:30:50;95122.72;;;13.72;100.00
72409;BME280;60402;48.082;11.628;2023-04-28T13:33:36;95121.28;;;13.67;100.00
72409;BME280;60402;48.082;11.628;2023-04-28T13:36:22;95088.66;;;13.63;100.00
72409;BME280;60402;48.082;11.628;2023-04-28T13:39:08;95097.78;;;13.58;100.00
72409;BME280;60402;48.082;11.628;2023-04-28T13:41:58;95093.53;;;13.71;100.00
72409;BME280;60402;48.082;11.628;2023-04-28T13:44:44;95076.84;;;13.55;100.00
72409;BME280;60402;48.082;11.628;2023-04-28T13:47:33;95086.25;;;13.89;100.00
72409;BME280;60402;48.082;11.628;2023-04-28T13:50:20;95097.88;;;14.18;100.00
72409;BME280;60402;48.082;11.628;2023-04-28T13:53:05;95103.38;;;14.22;100.00
72409;BME280;60402;48.082;11.628;2023-04-28T13:55:51;95107.81;;;14.23;100.00
72409;BME280;60402;48.082;11.628;2023-04-28T13:58:38;95071.38;;;14.12;100.00
72409;BME280;60402;48.082;11.628;2023-04-28T14:01:24;95090.91;;;14.19;100.00
72409;BME280;60402;48.082;11.628;2023-04-28T14:04:10;95090.84;;;14.38;100.00
72409;BME280;60402;48.082;11.628;2023-04-28T14:06:55;95070.78;;;14.50;100.00
72409;BME280;60402;48.082;11.628;2023-04-28T14:09:41;95099.06;;;14.87;100.00
72409;BME280;60402;48.082;11.628;2023-04-28T14:12:27;95063.09;;;14.75;100.00
72409;BME280;60402;48.082;11.628;2023-04-28T14:15:13;95049.97;;;14.77;100.00
72409;BME280;60402;48.082;11.628;2023-04-28T14:18:01;95077.97;;;14.94;100.00
72409;BME280;60402;48.082;11.628;2023-04-28T14:20:47;95088.69;;;14.99;100.00
72409;BME280;60402;48.082;11.628;2023-04-28T14:23:33;95066.09;;;14.71;100.00
72409;BME280;60402;48.082;11.628;2023-04-28T14:26:19;95083.19;;;14.95;100.00
72409;BME280;60402;48.082;11.628;2023-04-28T14:29:05;95096.94;;;14.97;100.00
72409;BME280;60402;48.082;11.628;2023-04-28T14:31:51;95088.97;;;14.77;100.00
72409;BME280;60402;48.082;11.628;2023-04-28T14:34:36;95076.16;;;14.81;100.00
72409;BME280;60402;48.082;11.628;2023-04-28T14:37:22;95071.50;;;14.69;100.00